sensor_id;sensor_type;location;lat;lon;timestamp;temperature;humidity
26641;DHT22;14269;47.358;0.724;2023-05-07T00:02:03;17.0;81.0
26641;DHT22;14269;47.358;0.724;2023-05-07T00:04:44;17.0;81.0
26641;DHT22;14269;47.358;0.724;2023-05-07T00:07:25;17.0;81.0
26641;DHT22;14269;47.358;0.724;2023-05-07T00:09:57;17.0;81.0
26641;DHT22;14269;47.358;0.724;2023-05-07T00:12:31;17.0;81.0
26641;DHT22;14269;47.358;0.724;2023-05-07T00:15:10;17.0;81.0
26641;DHT22;14269;47.358;0.724;2023-05-07T00:17:42;17.0;82.0
26641;DHT22;14269;47.358;0.724;2023-05-07T00:20:13;16.0;82.0
26641;DHT22;14269;47.358;0.724;2023-05-07T00:22:45;17.0;82.0
26641;DHT22;14269;47.358;0.724;2023-05-07T00:25:19;17.0;82.0
26641;DHT22;14269;47.358;0.724;2023-05-07T00:28:03;17.0;81.0
26641;DHT22;14269;47.358;0.724;2023-05-07T00:30:40;17.0;82.0
26641;DHT22;14269;47.358;0.724;2023-05-07T00:33:12;17.0;82.0
26641;DHT22;14269;47.358;0.724;2023-05-07T00:35:43;17.0;82.0
26641;DHT22;14269;47.358;0.724;2023-05-07T00:38:15;17.0;82.0
26641;DHT22;14269;47.358;0.724;2023-05-07T00:40:47;17.0;82.0
26641;DHT22;14269;47.358;0.724;2023-05-07T00:43:19;17.0;82.0
26641;DHT22;14269;47.358;0.724;2023-05-07T00:45:50;16.0;82.0
26641;DHT22;14269;47.358;0.724;2023-05-07T00:48:24;17.0;82.0
26641;DHT22;14269;47.358;0.724;2023-05-07T00:51:04;17.0;82.0
26641;DHT22;14269;47.358;0.724;2023-05-07T00:53:35;16.0;81.0
26641;DHT22;14269;47.358;0.724;2023-05-07T00:56:07;16.0;82.0
26641;DHT22;14269;47.358;0.724;2023-05-07T00:58:38;16.0;81.0
26641;DHT22;14269;47.358;0.724;2023-05-07T01:01:21;17.0;81.0
26641;DHT22;14269;47.358;0.724;2023-05-07T01:03:52;16.0;81.0
26641;DHT22;14269;47.358;0.724;2023-05-07T01:06:24;16.0;81.0
26641;DHT22;14269;47.358;0.724;2023-05-07T01:09:05;16.0;81.0
26641;DHT22;14269;47.358;0.724;2023-05-07T01:11:38;16.0;82.0
26641;DHT22;14269;47.358;0.724;2023-05-07T01:14:20;16.0;81.0
26641;DHT22;14269;47.358;0.724;2023-05-07T01:17:00;16.0;81.0
26641;DHT22;14269;47.358;0.724;2023-05-07T01:19:32;16.0;81.0
26641;DHT22;14269;47.358;0.724;2023-05-07T01:22:07;16.0;81.0
26641;DHT22;14269;47.358;0.724;2023-05-07T01:24:46;16.0;81.0
26641;DHT22;14269;47.358;0.724;2023-05-07T01:27:17;16.0;81.0
26641;DHT22;14269;47.358;0.724;2023-05-07T01:29:49;16.0;81.0
26641;DHT22;14269;47.358;0.724;2023-05-07T01:32:25;16.0;82.0
26641;DHT22;14269;47.358;0.724;2023-05-07T01:35:04;16.0;82.0
26641;DHT22;14269;47.358;0.724;2023-05-07T01:37:44;16.0;81.0
26641;DHT22;14269;47.358;0.724;2023-05-07T01:40:27;16.0;82.0
26641;DHT22;14269;47.358;0.724;2023-05-07T01:43:08;16.0;82.0
26641;DHT22;14269;47.358;0.724;2023-05-07T01:45:49;16.0;83.0
26641;DHT22;14269;47.358;0.724;2023-05-07T01:48:21;16.0;82.0
26641;DHT22;14269;47.358;0.724;2023-05-07T01:50:53;16.0;82.0
26641;DHT22;14269;47.358;0.724;2023-05-07T01:53:27;16.0;83.0
26641;DHT22;14269;47.358;0.724;2023-05-07T01:56:06;16.0;82.0
26641;DHT22;14269;47.358;0.724;2023-05-07T01:58:38;16.0;82.0
26641;DHT22;14269;47.358;0.724;2023-05-07T02:01:09;16.0;82.0
26641;DHT22;14269;47.358;0.724;2023-05-07T02:03:41;16.0;81.0
26641;DHT22;14269;47.358;0.724;2023-05-07T02:06:12;16.0;81.0
26641;DHT22;14269;47.358;0.724;2023-05-07T02:08:44;16.0;81.0
26641;DHT22;14269;47.358;0.724;2023-05-07T02:11:16;16.0;81.0
26641;DHT22;14269;47.358;0.724;2023-05-07T02:13:47;16.0;81.0
26641;DHT22;14269;47.358;0.724;2023-05-07T02:16:20;16.0;80.0
26641;DHT22;14269;47.358;0.724;2023-05-07T02:19:01;16.0;81.0
26641;DHT22;14269;47.358;0.724;2023-05-07T02:21:32;16.0;81.0
26641;DHT22;14269;47.358;0.724;2023-05-07T02:24:05;16.0;81.0
26641;DHT22;14269;47.358;0.724;2023-05-07T02:26:36;16.0;81.0
26641;DHT22;14269;47.358;0.724;2023-05-07T02:29:07;16.0;81.0
26641;DHT22;14269;47.358;0.724;2023-05-07T02:31:39;16.0;81.0
26641;DHT22;14269;47.358;0.724;2023-05-07T02:34:11;16.0;81.0
26641;DHT22;14269;47.358;0.724;2023-05-07T02:36:42;16.0;81.0
26641;DHT22;14269;47.358;0.724;2023-05-07T02:39:16;16.0;82.0
26641;DHT22;14269;47.358;0.724;2023-05-07T02:41:56;16.0;82.0
26641;DHT22;14269;47.358;0.724;2023-05-07T02:44:31;16.0;81.0
26641;DHT22;14269;47.358;0.724;2023-05-07T02:47:10;16.0;82.0
26641;DHT22;14269;47.358;0.724;2023-05-07T02:49:51;16.0;82.0
26641;DHT22;14269;47.358;0.724;2023-05-07T02:52:23;16.0;82.0
26641;DHT22;14269;47.358;0.724;2023-05-07T02:54:55;16.0;82.0
26641;DHT22;14269;47.358;0.724;2023-05-07T02:57:26;16.0;83.0
26641;DHT22;14269;47.358;0.724;2023-05-07T02:59:58;16.0;82.0
26641;DHT22;14269;47.358;0.724;2023-05-07T03:02:29;16.0;82.0
26641;DHT22;14269;47.358;0.724;2023-05-07T03:05:01;16.0;82.0
26641;DHT22;14269;47.358;0.724;2023-05-07T03:07:32;16.0;82.0
26641;DHT22;14269;47.358;0.724;2023-05-07T03:10:05;16.0;82.0
26641;DHT22;14269;47.358;0.724;2023-05-07T03:12:46;16.0;82.0
26641;DHT22;14269;47.358;0.724;2023-05-07T03:15:17;16.0;82.0
26641;DHT22;14269;47.358;0.724;2023-05-07T03:17:49;16.0;81.0
26641;DHT22;14269;47.358;0.724;2023-05-07T03:20:22;16.0;82.0
26641;DHT22;14269;47.358;0.724;2023-05-07T03:22:52;16.0;81.0
26641;DHT22;14269;47.358;0.724;2023-05-07T03:25:24;16.0;82.0
26641;DHT22;14269;47.358;0.724;2023-05-07T03:27:56;16.0;81.0
26641;DHT22;14269;47.358;0.724;2023-05-07T03:30:27;16.0;81.0
26641;DHT22;14269;47.358;0.724;2023-05-07T03:32:59;16.0;81.0
26641;DHT22;14269;47.358;0.724;2023-05-07T03:35:31;16.0;81.0
26641;DHT22;14269;47.358;0.724;2023-05-07T03:38:02;16.0;81.0
26641;DHT22;14269;47.358;0.724;2023-05-07T03:40:34;16.0;80.0
26641;DHT22;14269;47.358;0.724;2023-05-07T03:43:06;16.0;81.0
26641;DHT22;14269;47.358;0.724;2023-05-07T03:45:37;16.0;81.0
26641;DHT22;14269;47.358;0.724;2023-05-07T03:48:09;16.0;81.0
26641;DHT22;14269;47.358;0.724;2023-05-07T03:50:41;16.0;81.0
26641;DHT22;14269;47.358;0.724;2023-05-07T03:53:12;16.0;81.0
26641;DHT22;14269;47.358;0.724;2023-05-07T03:55:44;16.0;81.0
26641;DHT22;14269;47.358;0.724;2023-05-07T03:58:15;16.0;81.0
26641;DHT22;14269;47.358;0.724;2023-05-07T04:00:48;16.0;81.0
26641;DHT22;14269;47.358;0.724;2023-05-07T04:03:19;16.0;81.0
26641;DHT22;14269;47.358;0.724;2023-05-07T04:05:51;16.0;81.0
26641;DHT22;14269;47.358;0.724;2023-05-07T04:08:22;16.0;81.0
26641;DHT22;14269;47.358;0.724;2023-05-07T04:10:55;16.0;81.0
26641;DHT22;14269;47.358;0.724;2023-05-07T04:13:35;16.0;81.0
26641;DHT22;14269;47.358;0.724;2023-05-07T04:16:07;16.0;81.0
26641;DHT22;14269;47.358;0.724;2023-05-07T04:18:39;16.0;81.0
26641;DHT22;14269;47.358;0.724;2023-05-07T04:21:14;16.0;81.0
26641;DHT22;14269;47.358;0.724;2023-05-07T04:23:52;16.0;81.0
26641;DHT22;14269;47.358;0.724;2023-05-07T04:26:24;16.0;81.0
26641;DHT22;14269;47.358;0.724;2023-05-07T04:28:56;16.0;81.0
26641;DHT22;14269;47.358;0.724;2023-05-07T04:31:37;16.0;81.0
26641;DHT22;14269;47.358;0.724;2023-05-07T04:34:09;16.0;81.0
26641;DHT22;14269;47.358;0.724;2023-05-07T04:36:42;16.0;81.0
26641;DHT22;14269;47.358;0.724;2023-05-07T04:39:22;16.0;81.0
26641;DHT22;14269;47.358;0.724;2023-05-07T04:41:54;16.0;81.0
26641;DHT22;14269;47.358;0.724;2023-05-07T04:44:26;16.0;82.0
26641;DHT22;14269;47.358;0.724;2023-05-07T04:46:57;16.0;82.0
26641;DHT22;14269;47.358;0.724;2023-05-07T04:49:29;16.0;82.0
26641;DHT22;14269;47.358;0.724;2023-05-07T04:52:01;16.0;82.0
26641;DHT22;14269;47.358;0.724;2023-05-07T04:54:32;16.0;82.0
26641;DHT22;14269;47.358;0.724;2023-05-07T04:57:04;16.0;82.0
26641;DHT22;14269;47.358;0.724;2023-05-07T04:59:35;16.0;82.0
26641;DHT22;14269;47.358;0.724;2023-05-07T05:02:07;16.0;81.0
26641;DHT22;14269;47.358;0.724;2023-05-07T05:04:39;16.0;81.0
26641;DHT22;14269;47.358;0.724;2023-05-07T05:07:10;16.0;81.0
26641;DHT22;14269;47.358;0.724;2023-05-07T05:09:42;16.0;81.0
26641;DHT22;14269;47.358;0.724;2023-05-07T05:12:14;16.0;82.0
26641;DHT22;14269;47.358;0.724;2023-05-07T05:14:45;16.0;81.0
26641;DHT22;14269;47.358;0.724;2023-05-07T05:17:17;16.0;81.0
26641;DHT22;14269;47.358;0.724;2023-05-07T05:19:49;16.0;81.0
26641;DHT22;14269;47.358;0.724;2023-05-07T05:22:20;16.0;80.0
26641;DHT22;14269;47.358;0.724;2023-05-07T05:24:52;16.0;81.0
26641;DHT22;14269;47.358;0.724;2023-05-07T05:27:24;16.0;81.0
26641;DHT22;14269;47.358;0.724;2023-05-07T05:29:55;16.0;81.0
26641;DHT22;14269;47.358;0.724;2023-05-07T05:32:27;16.0;80.0
26641;DHT22;14269;47.358;0.724;2023-05-07T05:34:59;16.0;80.0
26641;DHT22;14269;47.358;0.724;2023-05-07T05:37:31;16.0;81.0
26641;DHT22;14269;47.358;0.724;2023-05-07T05:40:02;16.0;81.0
26641;DHT22;14269;47.358;0.724;2023-05-07T05:42:44;16.0;81.0
26641;DHT22;14269;47.358;0.724;2023-05-07T05:45:15;16.0;81.0
26641;DHT22;14269;47.358;0.724;2023-05-07T05:47:47;16.0;81.0
26641;DHT22;14269;47.358;0.724;2023-05-07T05:50:19;16.0;81.0
26641;DHT22;14269;47.358;0.724;2023-05-07T05:52:50;16.0;82.0
26641;DHT22;14269;47.358;0.724;2023-05-07T05:55:22;16.0;81.0
26641;DHT22;14269;47.358;0.724;2023-05-07T05:57:53;16.0;81.0
26641;DHT22;14269;47.358;0.724;2023-05-07T06:00:25;16.0;81.0
26641;DHT22;14269;47.358;0.724;2023-05-07T06:02:57;16.0;80.0
26641;DHT22;14269;47.358;0.724;2023-05-07T06:05:28;16.0;80.0
26641;DHT22;14269;47.358;0.724;2023-05-07T06:08:00;16.0;80.0
26641;DHT22;14269;47.358;0.724;2023-05-07T06:10:32;16.0;79.0
26641;DHT22;14269;47.358;0.724;2023-05-07T06:13:03;16.0;79.0
26641;DHT22;14269;47.358;0.724;2023-05-07T06:15:35;16.0;79.0
26641;DHT22;14269;47.358;0.724;2023-05-07T06:18:07;16.0;79.0
26641;DHT22;14269;47.358;0.724;2023-05-07T06:20:38;16.0;79.0
26641;DHT22;14269;47.358;0.724;2023-05-07T06:23:10;16.0;79.0
26641;DHT22;14269;47.358;0.724;2023-05-07T06:25:41;16.0;79.0
26641;DHT22;14269;47.358;0.724;2023-05-07T06:28:13;16.0;78.0
26641;DHT22;14269;47.358;0.724;2023-05-07T06:30:45;16.0;79.0
26641;DHT22;14269;47.358;0.724;2023-05-07T06:33:16;16.0;79.0
26641;DHT22;14269;47.358;0.724;2023-05-07T06:35:48;17.0;78.0
26641;DHT22;14269;47.358;0.724;2023-05-07T06:38:20;16.0;78.0
26641;DHT22;14269;47.358;0.724;2023-05-07T06:40:52;16.0;78.0
26641;DHT22;14269;47.358;0.724;2023-05-07T06:43:33;16.0;79.0
26641;DHT22;14269;47.358;0.724;2023-05-07T06:46:05;16.0;79.0
26641;DHT22;14269;47.358;0.724;2023-05-07T06:48:36;16.0;78.0
26641;DHT22;14269;47.358;0.724;2023-05-07T06:51:08;16.0;79.0
26641;DHT22;14269;47.358;0.724;2023-05-07T06:53:40;16.0;79.0
26641;DHT22;14269;47.358;0.724;2023-05-07T06:56:11;17.0;79.0
26641;DHT22;14269;47.358;0.724;2023-05-07T06:58:43;16.0;78.0
26641;DHT22;14269;47.358;0.724;2023-05-07T07:01:15;16.0;78.0
26641;DHT22;14269;47.358;0.724;2023-05-07T07:03:46;16.0;78.0
26641;DHT22;14269;47.358;0.724;2023-05-07T07:06:18;16.0;79.0
26641;DHT22;14269;47.358;0.724;2023-05-07T07:08:50;16.0;79.0
26641;DHT22;14269;47.358;0.724;2023-05-07T07:11:21;16.0;79.0
26641;DHT22;14269;47.358;0.724;2023-05-07T07:13:54;16.0;79.0
26641;DHT22;14269;47.358;0.724;2023-05-07T07:16:24;16.0;79.0
26641;DHT22;14269;47.358;0.724;2023-05-07T07:18:56;16.0;79.0
26641;DHT22;14269;47.358;0.724;2023-05-07T07:21:28;16.0;78.0
26641;DHT22;14269;47.358;0.724;2023-05-07T07:24:00;16.0;79.0
26641;DHT22;14269;47.358;0.724;2023-05-07T07:26:31;16.0;79.0
26641;DHT22;14269;47.358;0.724;2023-05-07T07:29:03;16.0;79.0
26641;DHT22;14269;47.358;0.724;2023-05-07T07:31:34;16.0;79.0
26641;DHT22;14269;47.358;0.724;2023-05-07T07:34:06;16.0;79.0
26641;DHT22;14269;47.358;0.724;2023-05-07T07:36:38;16.0;79.0
26641;DHT22;14269;47.358;0.724;2023-05-07T07:39:09;16.0;79.0
26641;DHT22;14269;47.358;0.724;2023-05-07T07:41:41;16.0;79.0
26641;DHT22;14269;47.358;0.724;2023-05-07T07:44:13;16.0;80.0
26641;DHT22;14269;47.358;0.724;2023-05-07T07:46:44;17.0;80.0
26641;DHT22;14269;47.358;0.724;2023-05-07T07:49:16;17.0;80.0
26641;DHT22;14269;47.358;0.724;2023-05-07T07:51:48;17.0;80.0
26641;DHT22;14269;47.358;0.724;2023-05-07T07:54:19;17.0;80.0
26641;DHT22;14269;47.358;0.724;2023-05-07T07:56:51;17.0;80.0
26641;DHT22;14269;47.358;0.724;2023-05-07T07:59:22;17.0;80.0
26641;DHT22;14269;47.358;0.724;2023-05-07T08:01:56;17.0;79.0
26641;DHT22;14269;47.358;0.724;2023-05-07T08:04:37;17.0;79.0
26641;DHT22;14269;47.358;0.724;2023-05-07T08:07:07;17.0;79.0
26641;DHT22;14269;47.358;0.724;2023-05-07T08:09:40;17.0;78.0
26641;DHT22;14269;47.358;0.724;2023-05-07T08:12:11;17.0;79.0
26641;DHT22;14269;47.358;0.724;2023-05-07T08:14:43;17.0;78.0
26641;DHT22;14269;47.358;0.724;2023-05-07T08:17:15;17.0;78.0
26641;DHT22;14269;47.358;0.724;2023-05-07T08:19:56;17.0;78.0
26641;DHT22;14269;47.358;0.724;2023-05-07T08:22:28;17.0;78.0
26641;DHT22;14269;47.358;0.724;2023-05-07T08:25:00;17.0;78.0
26641;DHT22;14269;47.358;0.724;2023-05-07T08:27:31;17.0;77.0
26641;DHT22;14269;47.358;0.724;2023-05-07T08:30:04;17.0;77.0
26641;DHT22;14269;47.358;0.724;2023-05-07T08:32:44;18.0;77.0
26641;DHT22;14269;47.358;0.724;2023-05-07T08:35:16;18.0;77.0
26641;DHT22;14269;47.358;0.724;2023-05-07T08:37:48;17.0;75.0
26641;DHT22;14269;47.358;0.724;2023-05-07T08:40:20;17.0;76.0
26641;DHT22;14269;47.358;0.724;2023-05-07T08:43:02;17.0;76.0
26641;DHT22;14269;47.358;0.724;2023-05-07T08:45:45;17.0;76.0
26641;DHT22;14269;47.358;0.724;2023-05-07T08:48:25;18.0;75.0
26641;DHT22;14269;47.358;0.724;2023-05-07T08:51:06;18.0;75.0
26641;DHT22;14269;47.358;0.724;2023-05-07T08:53:40;18.0;75.0
26641;DHT22;14269;47.358;0.724;2023-05-07T08:56:20;18.0;75.0
26641;DHT22;14269;47.358;0.724;2023-05-07T08:58:51;18.0;74.0
26641;DHT22;14269;47.358;0.724;2023-05-07T09:01:35;18.0;75.0
26641;DHT22;14269;47.358;0.724;2023-05-07T09:04:15;18.0;75.0
26641;DHT22;14269;47.358;0.724;2023-05-07T09:06:48;18.0;74.0
26641;DHT22;14269;47.358;0.724;2023-05-07T09:09:28;19.0;74.0
26641;DHT22;14269;47.358;0.724;2023-05-07T09:12:00;18.0;74.0
26641;DHT22;14269;47.358;0.724;2023-05-07T09:14:42;18.0;74.0
26641;DHT22;14269;47.358;0.724;2023-05-07T09:17:14;18.0;74.0
26641;DHT22;14269;47.358;0.724;2023-05-07T09:19:55;18.0;74.0
26641;DHT22;14269;47.358;0.724;2023-05-07T09:22:27;18.0;73.0
26641;DHT22;14269;47.358;0.724;2023-05-07T09:24:58;19.0;72.0
26641;DHT22;14269;47.358;0.724;2023-05-07T09:27:30;19.0;72.0
26641;DHT22;14269;47.358;0.724;2023-05-07T09:30:03;19.0;71.0
26641;DHT22;14269;47.358;0.724;2023-05-07T09:32:43;19.0;70.0
26641;DHT22;14269;47.358;0.724;2023-05-07T09:35:16;19.0;70.0
26641;DHT22;14269;47.358;0.724;2023-05-07T09:37:58;19.0;70.0
26641;DHT22;14269;47.358;0.724;2023-05-07T09:40:38;19.0;70.0
26641;DHT22;14269;47.358;0.724;2023-05-07T09:43:12;20.0;70.0
26641;DHT22;14269;47.358;0.724;2023-05-07T09:45:52;20.0;69.0
26641;DHT22;14269;47.358;0.724;2023-05-07T09:48:25;20.0;70.0
26641;DHT22;14269;47.358;0.724;2023-05-07T09:51:11;20.0;67.0
26641;DHT22;14269;47.358;0.724;2023-05-07T09:53:48;21.0;67.0
26641;DHT22;14269;47.358;0.724;2023-05-07T09:56:20;21.0;64.0
26641;DHT22;14269;47.358;0.724;2023-05-07T09:59:01;21.0;65.0
26641;DHT22;14269;47.358;0.724;2023-05-07T10:01:43;21.0;63.0
26641;DHT22;14269;47.358;0.724;2023-05-07T10:04:25;21.0;64.0
26641;DHT22;14269;47.358;0.724;2023-05-07T10:07:07;22.0;63.0
26641;DHT22;14269;47.358;0.724;2023-05-07T10:09:49;21.0;63.0
26641;DHT22;14269;47.358;0.724;2023-05-07T10:12:30;22.0;61.0
26641;DHT22;14269;47.358;0.724;2023-05-07T10:15:11;22.0;59.0
26641;DHT22;14269;47.358;0.724;2023-05-07T10:17:43;22.0;61.0
26641;DHT22;14269;47.358;0.724;2023-05-07T10:20:14;23.0;63.0
26641;DHT22;14269;47.358;0.724;2023-05-07T10:22:48;23.0;61.0
26641;DHT22;14269;47.358;0.724;2023-05-07T10:25:30;22.0;59.0
26641;DHT22;14269;47.358;0.724;2023-05-07T10:28:11;22.0;60.0
26641;DHT22;14269;47.358;0.724;2023-05-07T10:31:08;22.0;61.0
26641;DHT22;14269;47.358;0.724;2023-05-07T10:33:45;22.0;61.0
26641;DHT22;14269;47.358;0.724;2023-05-07T10:36:26;21.0;60.0
26641;DHT22;14269;47.358;0.724;2023-05-07T10:39:07;21.0;62.0
26641;DHT22;14269;47.358;0.724;2023-05-07T10:41:39;21.0;63.0
26641;DHT22;14269;47.358;0.724;2023-05-07T10:44:10;21.0;65.0
26641;DHT22;14269;47.358;0.724;2023-05-07T10:46:42;20.0;68.0
26641;DHT22;14269;47.358;0.724;2023-05-07T10:49:14;20.0;71.0
26641;DHT22;14269;47.358;0.724;2023-05-07T10:52:12;19.0;74.0
26641;DHT22;14269;47.358;0.724;2023-05-07T10:54:47;19.0;73.0
26641;DHT22;14269;47.358;0.724;2023-05-07T10:57:35;20.0;74.0
26641;DHT22;14269;47.358;0.724;2023-05-07T11:00:42;20.0;75.0
26641;DHT22;14269;47.358;0.724;2023-05-07T11:03:22;20.0;74.0
26641;DHT22;14269;47.358;0.724;2023-05-07T11:06:11;20.0;73.0
26641;DHT22;14269;47.358;0.724;2023-05-07T11:08:54;21.0;73.0
26641;DHT22;14269;47.358;0.724;2023-05-07T11:11:45;21.0;72.0
26641;DHT22;14269;47.358;0.724;2023-05-07T11:14:53;20.0;72.0
26641;DHT22;14269;47.358;0.724;2023-05-07T11:17:34;21.0;72.0
26641;DHT22;14269;47.358;0.724;2023-05-07T11:20:13;21.0;71.0
26641;DHT22;14269;47.358;0.724;2023-05-07T11:22:45;22.0;69.0
26641;DHT22;14269;47.358;0.724;2023-05-07T11:25:18;22.0;65.0
26641;DHT22;14269;47.358;0.724;2023-05-07T11:28:04;22.0;65.0
26641;DHT22;14269;47.358;0.724;2023-05-07T11:30:42;23.0;61.0
26641;DHT22;14269;47.358;0.724;2023-05-07T11:33:22;24.0;64.0
26641;DHT22;14269;47.358;0.724;2023-05-07T11:36:05;23.0;57.0
26641;DHT22;14269;47.358;0.724;2023-05-07T11:38:45;24.0;58.0
26641;DHT22;14269;47.358;0.724;2023-05-07T11:41:19;24.0;57.0
26641;DHT22;14269;47.358;0.724;2023-05-07T11:43:59;24.0;53.0
26641;DHT22;14269;47.358;0.724;2023-05-07T11:46:31;23.0;54.0
26641;DHT22;14269;47.358;0.724;2023-05-07T11:49:02;24.0;56.0
26641;DHT22;14269;47.358;0.724;2023-05-07T11:51:34;24.0;60.0
26641;DHT22;14269;47.358;0.724;2023-05-07T11:54:08;24.0;57.0
26641;DHT22;14269;47.358;0.724;2023-05-07T11:56:47;25.0;55.0
26641;DHT22;14269;47.358;0.724;2023-05-07T11:59:29;24.0;56.0
26641;DHT22;14269;47.358;0.724;2023-05-07T12:02:01;24.0;57.0
26641;DHT22;14269;47.358;0.724;2023-05-07T12:04:32;23.0;59.0
26641;DHT22;14269;47.358;0.724;2023-05-07T12:07:04;23.0;59.0
26641;DHT22;14269;47.358;0.724;2023-05-07T12:09:36;23.0;60.0
26641;DHT22;14269;47.358;0.724;2023-05-07T12:12:07;22.0;61.0
26641;DHT22;14269;47.358;0.724;2023-05-07T12:14:40;22.0;62.0
26641;DHT22;14269;47.358;0.724;2023-05-07T12:17:11;22.0;63.0
26641;DHT22;14269;47.358;0.724;2023-05-07T12:19:53;21.0;64.0
26641;DHT22;14269;47.358;0.724;2023-05-07T12:22:34;22.0;64.0
26641;DHT22;14269;47.358;0.724;2023-05-07T12:25:07;23.0;62.0
26641;DHT22;14269;47.358;0.724;2023-05-07T12:27:51;24.0;60.0
26641;DHT22;14269;47.358;0.724;2023-05-07T12:30:29;23.0;59.0
26641;DHT22;14269;47.358;0.724;2023-05-07T12:33:01;23.0;59.0
26641;DHT22;14269;47.358;0.724;2023-05-07T12:35:37;23.0;59.0
26641;DHT22;14269;47.358;0.724;2023-05-07T12:38:17;23.0;59.0
26641;DHT22;14269;47.358;0.724;2023-05-07T12:40:56;23.0;58.0
26641;DHT22;14269;47.358;0.724;2023-05-07T12:43:29;23.0;59.0
26641;DHT22;14269;47.358;0.724;2023-05-07T12:46:10;23.0;56.0
26641;DHT22;14269;47.358;0.724;2023-05-07T12:48:44;22.0;60.0
26641;DHT22;14269;47.358;0.724;2023-05-07T12:51:23;23.0;59.0
26641;DHT22;14269;47.358;0.724;2023-05-07T12:53:56;23.0;57.0
26641;DHT22;14269;47.358;0.724;2023-05-07T12:56:36;23.0;58.0
26641;DHT22;14269;47.358;0.724;2023-05-07T12:59:08;23.0;58.0
26641;DHT22;14269;47.358;0.724;2023-05-07T13:01:39;23.0;58.0
26641;DHT22;14269;47.358;0.724;2023-05-07T13:04:11;23.0;56.0
26641;DHT22;14269;47.358;0.724;2023-05-07T13:06:43;23.0;57.0
26641;DHT22;14269;47.358;0.724;2023-05-07T13:09:14;23.0;58.0
26641;DHT22;14269;47.358;0.724;2023-05-07T13:11:46;22.0;59.0
26641;DHT22;14269;47.358;0.724;2023-05-07T13:14:20;22.0;60.0
26641;DHT22;14269;47.358;0.724;2023-05-07T13:16:59;21.0;62.0
26641;DHT22;14269;47.358;0.724;2023-05-07T13:19:31;22.0;61.0
26641;DHT22;14269;47.358;0.724;2023-05-07T13:22:03;22.0;63.0
26641;DHT22;14269;47.358;0.724;2023-05-07T13:24:34;21.0;61.0
26641;DHT22;14269;47.358;0.724;2023-05-07T13:27:06;21.0;65.0
26641;DHT22;14269;47.358;0.724;2023-05-07T13:29:38;21.0;65.0
26641;DHT22;14269;47.358;0.724;2023-05-07T13:32:09;21.0;66.0
26641;DHT22;14269;47.358;0.724;2023-05-07T13:34:41;20.0;66.0
26641;DHT22;14269;47.358;0.724;2023-05-07T13:37:13;20.0;68.0
26641;DHT22;14269;47.358;0.724;2023-05-07T13:39:45;20.0;69.0
26641;DHT22;14269;47.358;0.724;2023-05-07T13:42:16;20.0;70.0
26641;DHT22;14269;47.358;0.724;2023-05-07T13:44:47;20.0;71.0
26641;DHT22;14269;47.358;0.724;2023-05-07T13:47:19;20.0;73.0
26641;DHT22;14269;47.358;0.724;2023-05-07T13:49:51;20.0;74.0
26641;DHT22;14269;47.358;0.724;2023-05-07T13:52:22;20.0;73.0
26641;DHT22;14269;47.358;0.724;2023-05-07T13:54:55;20.0;74.0
26641;DHT22;14269;47.358;0.724;2023-05-07T13:57:36;20.0;73.0
26641;DHT22;14269;47.358;0.724;2023-05-07T14:00:09;20.0;73.0
26641;DHT22;14269;47.358;0.724;2023-05-07T14:02:49;21.0;73.0
26641;DHT22;14269;47.358;0.724;2023-05-07T14:05:23;21.0;72.0
26641;DHT22;14269;47.358;0.724;2023-05-07T14:08:04;22.0;71.0
26641;DHT22;14269;47.358;0.724;2023-05-07T14:10:45;21.0;68.0
26641;DHT22;14269;47.358;0.724;2023-05-07T14:13:16;21.0;70.0
26641;DHT22;14269;47.358;0.724;2023-05-07T14:15:49;20.0;71.0
26641;DHT22;14269;47.358;0.724;2023-05-07T14:18:19;20.0;72.0
26641;DHT22;14269;47.358;0.724;2023-05-07T14:20:51;20.0;72.0
26641;DHT22;14269;47.358;0.724;2023-05-07T14:23:26;20.0;70.0
26641;DHT22;14269;47.358;0.724;2023-05-07T14:26:04;21.0;68.0
26641;DHT22;14269;47.358;0.724;2023-05-07T14:28:39;21.0;68.0
26641;DHT22;14269;47.358;0.724;2023-05-07T14:31:18;21.0;67.0
26641;DHT22;14269;47.358;0.724;2023-05-07T14:33:50;21.0;68.0
26641;DHT22;14269;47.358;0.724;2023-05-07T14:36:31;21.0;67.0
26641;DHT22;14269;47.358;0.724;2023-05-07T14:39:03;21.0;67.0
26641;DHT22;14269;47.358;0.724;2023-05-07T14:41:35;20.0;67.0
26641;DHT22;14269;47.358;0.724;2023-05-07T14:44:06;20.0;67.0
26641;DHT22;14269;47.358;0.724;2023-05-07T14:46:38;21.0;67.0
26641;DHT22;14269;47.358;0.724;2023-05-07T14:49:16;21.0;66.0
26641;DHT22;14269;47.358;0.724;2023-05-07T14:51:51;22.0;66.0
26641;DHT22;14269;47.358;0.724;2023-05-07T14:54:23;22.0;65.0
26641;DHT22;14269;47.358;0.724;2023-05-07T14:56:55;22.0;64.0
26641;DHT22;14269;47.358;0.724;2023-05-07T14:59:26;22.0;64.0
26641;DHT22;14269;47.358;0.724;2023-05-07T15:01:58;22.0;66.0
26641;DHT22;14269;47.358;0.724;2023-05-07T15:04:30;22.0;65.0
26641;DHT22;14269;47.358;0.724;2023-05-07T15:07:01;22.0;64.0
26641;DHT22;14269;47.358;0.724;2023-05-07T15:09:33;22.0;65.0
26641;DHT22;14269;47.358;0.724;2023-05-07T15:12:04;22.0;65.0
26641;DHT22;14269;47.358;0.724;2023-05-07T15:14:36;22.0;64.0
26641;DHT22;14269;47.358;0.724;2023-05-07T15:17:08;21.0;65.0
26641;DHT22;14269;47.358;0.724;2023-05-07T15:19:39;21.0;65.0
26641;DHT22;14269;47.358;0.724;2023-05-07T15:22:11;21.0;66.0
26641;DHT22;14269;47.358;0.724;2023-05-07T15:24:43;21.0;65.0
26641;DHT22;14269;47.358;0.724;2023-05-07T15:27:15;21.0;64.0
26641;DHT22;14269;47.358;0.724;2023-05-07T15:29:56;21.0;63.0
26641;DHT22;14269;47.358;0.724;2023-05-07T15:32:28;21.0;63.0
26641;DHT22;14269;47.358;0.724;2023-05-07T15:34:59;21.0;62.0
26641;DHT22;14269;47.358;0.724;2023-05-07T15:37:31;21.0;61.0
26641;DHT22;14269;47.358;0.724;2023-05-07T15:40:06;21.0;62.0
26641;DHT22;14269;47.358;0.724;2023-05-07T15:42:45;21.0;62.0
26641;DHT22;14269;47.358;0.724;2023-05-07T15:45:16;21.0;63.0
26641;DHT22;14269;47.358;0.724;2023-05-07T15:47:48;21.0;63.0
26641;DHT22;14269;47.358;0.724;2023-05-07T15:50:20;21.0;63.0
26641;DHT22;14269;47.358;0.724;2023-05-07T15:52:51;21.0;63.0
26641;DHT22;14269;47.358;0.724;2023-05-07T15:55:23;21.0;62.0
26641;DHT22;14269;47.358;0.724;2023-05-07T15:57:54;21.0;60.0
26641;DHT22;14269;47.358;0.724;2023-05-07T16:00:26;21.0;61.0
26641;DHT22;14269;47.358;0.724;2023-05-07T16:02:57;21.0;61.0
26641;DHT22;14269;47.358;0.724;2023-05-07T16:05:30;21.0;61.0
26641;DHT22;14269;47.358;0.724;2023-05-07T16:08:01;21.0;62.0
26641;DHT22;14269;47.358;0.724;2023-05-07T16:10:43;21.0;61.0
26641;DHT22;14269;47.358;0.724;2023-05-07T16:13:18;21.0;61.0
26641;DHT22;14269;47.358;0.724;2023-05-07T16:15:57;21.0;60.0
26641;DHT22;14269;47.358;0.724;2023-05-07T16:18:38;21.0;60.0
26641;DHT22;14269;47.358;0.724;2023-05-07T16:21:09;21.0;60.0
26641;DHT22;14269;47.358;0.724;2023-05-07T16:23:41;21.0;60.0
26641;DHT22;14269;47.358;0.724;2023-05-07T16:26:13;21.0;61.0
26641;DHT22;14269;47.358;0.724;2023-05-07T16:28:44;21.0;60.0
26641;DHT22;14269;47.358;0.724;2023-05-07T16:31:16;21.0;61.0
26641;DHT22;14269;47.358;0.724;2023-05-07T16:33:48;21.0;60.0
26641;DHT22;14269;47.358;0.724;2023-05-07T16:36:19;21.0;61.0
26641;DHT22;14269;47.358;0.724;2023-05-07T16:38:51;21.0;61.0
26641;DHT22;14269;47.358;0.724;2023-05-07T16:41:23;21.0;61.0
26641;DHT22;14269;47.358;0.724;2023-05-07T16:43:56;21.0;62.0
26641;DHT22;14269;47.358;0.724;2023-05-07T16:46:36;21.0;62.0
26641;DHT22;14269;47.358;0.724;2023-05-07T16:49:08;21.0;61.0